createdAt,value
2023-03-03T00:01:01.917Z,9.20
2023-03-03T00:04:43.666Z,9.85
2023-03-03T00:08:25.956Z,9.43
2023-03-03T00:12:27.069Z,8.10
2023-03-03T00:16:16.844Z,9.23
2023-03-03T00:19:59.301Z,8.85
2023-03-03T00:23:43.273Z,8.93
2023-03-03T00:27:38.654Z,10.63
2023-03-03T00:31:37.234Z,10.98
2023-03-03T00:35:35.406Z,7.78
2023-03-03T00:39:20.020Z,6.90
2023-03-03T00:43:11.072Z,6.68
2023-03-03T00:46:54.219Z,8.52
2023-03-03T00:50:36.610Z,6.72
2023-03-03T00:54:18.358Z,7.70
2023-03-03T00:58:00.372Z,7.60
2023-03-03T01:01:42.369Z,6.45
2023-03-03T01:05:24.166Z,12.27
2023-03-03T01:09:06.025Z,8.95
2023-03-03T01:12:48.006Z,10.63
2023-03-03T01:16:29.862Z,9.80
2023-03-03T01:20:13.949Z,11.27
2023-03-03T01:23:55.715Z,8.40
2023-03-03T01:27:37.612Z,6.95
2023-03-03T01:31:19.423Z,8.20
2023-03-03T01:35:01.231Z,7.82
2023-03-03T01:38:43.858Z,7.93
2023-03-03T01:42:29.150Z,8.68
2023-03-03T01:46:10.946Z,9.20
2023-03-03T01:49:59.190Z,8.50
2023-03-03T01:53:49.611Z,9.23
2023-03-03T01:57:40.390Z,8.48
2023-03-03T02:01:24.727Z,12.10
2023-03-03T02:05:07.672Z,10.77
2023-03-03T02:09:06.135Z,9.88
2023-03-03T02:12:50.669Z,11.80
2023-03-03T02:16:32.732Z,10.20
2023-03-03T02:20:36.172Z,9.63
2023-03-03T02:24:44.981Z,10.10
2023-03-03T02:28:32.799Z,8.93
2023-03-03T02:32:14.599Z,10.98
2023-03-03T02:35:56.792Z,6.75
2023-03-03T02:39:38.548Z,15.50
2023-03-03T02:43:22.972Z,11.85
2023-03-03T02:47:05.025Z,10.00
2023-03-03T02:50:46.794Z,8.73
2023-03-03T02:54:30.975Z,8.23
2023-03-03T02:58:12.709Z,10.15
2023-03-03T03:01:54.993Z,9.23
2023-03-03T03:05:36.733Z,8.57
2023-03-03T03:09:20.757Z,8.38
2023-03-03T03:13:02.601Z,8.48
2023-03-03T03:16:44.419Z,8.27
2023-03-03T03:20:26.269Z,10.38
2023-03-03T03:24:08.184Z,9.20
2023-03-03T03:27:49.996Z,8.63
2023-03-03T03:31:31.799Z,6.72
2023-03-03T03:35:13.597Z,9.50
2023-03-03T03:38:55.326Z,12.00
2023-03-03T03:42:38.564Z,9.82
2023-03-03T03:46:20.477Z,8.25
2023-03-03T03:50:02.270Z,10.25
2023-03-03T03:53:44.007Z,9.27
2023-03-03T03:57:26.771Z,7.32
2023-03-03T04:01:09.954Z,6.30
2023-03-03T04:04:51.736Z,9.00
2023-03-03T04:08:33.463Z,10.25
2023-03-03T04:12:15.182Z,8.95
2023-03-03T04:15:56.938Z,10.82
2023-03-03T04:19:38.723Z,9.63
2023-03-03T04:23:21.335Z,13.95
2023-03-03T04:27:03.100Z,10.68
2023-03-03T04:30:45.196Z,8.50
2023-03-03T04:34:27.144Z,9.32
2023-03-03T04:38:08.853Z,11.02
2023-03-03T04:41:50.661Z,13.45
2023-03-03T04:45:32.466Z,11.43
2023-03-03T04:49:14.177Z,8.30
2023-03-03T04:52:55.908Z,9.27
2023-03-03T04:56:37.684Z,8.23
2023-03-03T05:00:19.712Z,6.15
2023-03-03T05:04:01.489Z,7.65
2023-03-03T05:07:43.250Z,8.55
2023-03-03T05:11:25.110Z,6.30
2023-03-03T05:15:07.550Z,8.75
2023-03-03T05:18:49.280Z,8.43
2023-03-03T05:22:31.232Z,8.20
2023-03-03T05:26:13.024Z,9.43
2023-03-03T05:29:54.780Z,10.02
2023-03-03T05:33:36.936Z,10.25
2023-03-03T05:37:18.699Z,6.47
2023-03-03T05:41:01.244Z,7.25
2023-03-03T05:44:42.984Z,9.20
2023-03-03T05:48:24.927Z,9.15
2023-03-03T05:52:06.951Z,9.85
2023-03-03T05:55:48.748Z,12.02
2023-03-03T05:59:30.527Z,6.75
2023-03-03T06:03:12.317Z,9.65
2023-03-03T06:06:54.054Z,10.00
2023-03-03T06:10:35.998Z,10.00
2023-03-03T06:14:17.790Z,9.23
2023-03-03T06:17:59.568Z,9.43
2023-03-03T06:21:42.753Z,12.88
2023-03-03T06:25:24.602Z,10.20
2023-03-03T06:29:06.374Z,8.60
2023-03-03T06:32:48.330Z,11.30
2023-03-03T06:36:30.088Z,12.65
2023-03-03T06:40:12.540Z,8.30
2023-03-03T06:43:54.341Z,7.40
2023-03-03T06:47:36.091Z,7.93
2023-03-03T06:51:26.815Z,12.73
2023-03-03T06:55:16.333Z,8.50
2023-03-03T06:59:00.642Z,8.75
2023-03-03T07:02:42.747Z,7.32
2023-03-03T07:06:28.076Z,7.07
2023-03-03T07:10:30.775Z,6.22
2023-03-03T07:14:18.333Z,5.03
2023-03-03T07:18:00.245Z,11.18
2023-03-03T07:21:42.001Z,9.13
2023-03-03T07:25:32.709Z,8.45
2023-03-03T07:29:25.584Z,6.75
2023-03-03T07:33:27.960Z,8.85
2023-03-03T07:37:35.845Z,8.20
2023-03-03T07:41:25.879Z,5.93
2023-03-03T07:45:28.133Z,5.68
2023-03-03T07:49:35.068Z,8.38
2023-03-03T07:53:29.122Z,5.15
2023-03-03T07:57:37.383Z,5.45
2023-03-03T08:01:41.128Z,4.28
2023-03-03T08:05:35.934Z,5.82
2023-03-03T08:09:17.674Z,7.15
2023-03-03T08:13:05.421Z,7.75
2023-03-03T08:16:47.235Z,7.45
2023-03-03T08:20:34.916Z,4.38
2023-03-03T08:24:16.694Z,7.70
2023-03-03T08:27:58.476Z,4.95
2023-03-03T08:31:42.076Z,5.05
2023-03-03T08:35:24.202Z,6.95
2023-03-03T08:39:06.256Z,6.35
2023-03-03T08:42:48.885Z,5.63
2023-03-03T08:46:30.739Z,5.13
2023-03-03T08:50:13.079Z,7.15
2023-03-03T08:53:55.287Z,5.30
2023-03-03T08:57:37.235Z,7.47
2023-03-03T09:01:18.957Z,4.68
2023-03-03T09:05:01.129Z,4.95
2023-03-03T09:08:42.896Z,5.68
2023-03-03T09:12:41.173Z,6.65
2023-03-03T09:16:23.000Z,7.30
2023-03-03T09:20:35.753Z,5.85
2023-03-03T09:24:36.946Z,7.72
2023-03-03T09:28:32.853Z,4.00
2023-03-03T09:32:35.430Z,4.68
2023-03-03T09:36:35.469Z,6.18
2023-03-03T09:40:41.253Z,5.18
2023-03-03T09:44:40.088Z,6.03
2023-03-03T09:48:34.159Z,5.22
2023-03-03T09:52:18.656Z,5.72
2023-03-03T09:56:32.864Z,5.47
2023-03-03T10:00:33.146Z,4.40
2023-03-03T10:04:43.002Z,5.03
2023-03-03T10:09:18.220Z,5.55
2023-03-03T10:13:25.695Z,4.35
2023-03-03T10:17:38.836Z,3.60
2023-03-03T10:21:37.350Z,3.78
2023-03-03T10:25:19.202Z,3.20
2023-03-03T10:29:07.078Z,3.05
2023-03-03T10:33:01.931Z,5.22
2023-03-03T10:36:57.924Z,2.97
2023-03-03T10:40:45.440Z,5.88
2023-03-03T10:44:53.202Z,3.50
2023-03-03T10:49:01.139Z,7.40
2023-03-03T10:53:25.035Z,7.38
2023-03-03T10:57:42.223Z,3.60
2023-03-03T11:01:51.680Z,5.10
2023-03-03T11:05:48.054Z,4.93
2023-03-03T11:09:43.695Z,4.43
2023-03-03T11:13:46.745Z,3.95
2023-03-03T11:17:42.426Z,3.10
2023-03-03T11:21:24.209Z,9.43
2023-03-03T11:25:34.558Z,5.45
2023-03-03T11:29:21.977Z,4.13
2023-03-03T11:33:12.577Z,2.45
2023-03-03T11:37:31.313Z,3.78
2023-03-03T11:41:18.712Z,5.40
2023-03-03T11:45:05.708Z,5.90
2023-03-03T11:49:00.705Z,5.80
2023-03-03T11:52:57.330Z,3.53
2023-03-03T11:56:41.887Z,4.85
2023-03-03T12:00:45.290Z,5.82
2023-03-03T12:04:37.939Z,5.10
2023-03-03T12:08:28.638Z,4.47
2023-03-03T12:12:20.862Z,6.38
2023-03-03T12:16:40.043Z,6.47
2023-03-03T12:20:27.664Z,5.00
2023-03-03T12:24:18.856Z,4.93
2023-03-03T12:28:22.169Z,4.55
2023-03-03T12:32:21.467Z,4.85
2023-03-03T12:36:21.234Z,6.00
2023-03-03T12:40:26.230Z,6.45
2023-03-03T12:44:37.686Z,3.05
2023-03-03T12:48:34.576Z,4.65
2023-03-03T12:52:25.061Z,7.43
2023-03-03T12:56:09.723Z,5.05
2023-03-03T13:00:06.267Z,4.95
2023-03-03T13:04:14.339Z,3.70
2023-03-03T13:08:14.403Z,4.30
2023-03-03T13:12:24.154Z,4.30
2023-03-03T13:16:16.822Z,2.65
2023-03-03T13:20:05.988Z,4.75
2023-03-03T13:24:02.967Z,4.15
2023-03-03T13:27:48.030Z,4.25
2023-03-03T13:31:41.149Z,5.45
2023-03-03T13:35:44.509Z,4.70
2023-03-03T13:39:31.756Z,3.97
2023-03-03T13:47:02.054Z,5.32
2023-03-03T13:50:50.181Z,4.60
2023-03-03T13:55:09.049Z,4.30
2023-03-03T13:59:29.520Z,3.67
2023-03-03T14:03:38.526Z,3.78
2023-03-03T14:07:28.332Z,3.17
2023-03-03T14:11:25.213Z,5.55
2023-03-03T14:15:41.689Z,4.07
2023-03-03T14:19:35.718Z,4.18
2023-03-03T14:23:27.569Z,4.45
2023-03-03T14:27:24.367Z,3.83
2023-03-03T14:31:27.641Z,4.85
2023-03-03T14:35:19.254Z,4.05
2023-03-03T14:39:01.620Z,3.35
2023-03-03T14:42:54.544Z,2.65
2023-03-03T14:46:41.740Z,3.85
2023-03-03T14:54:37.213Z,3.63
2023-03-03T14:58:57.088Z,3.65
2023-03-03T15:02:43.594Z,3.25
2023-03-03T15:06:32.973Z,2.67
2023-03-03T15:10:33.125Z,4.03
2023-03-03T15:14:17.198Z,2.08
2023-03-03T15:18:05.121Z,2.33
2023-03-03T15:22:07.275Z,3.17
2023-03-03T15:26:18.978Z,3.60
2023-03-03T15:30:23.962Z,4.63
2023-03-03T15:34:31.302Z,1.95
2023-03-03T15:38:13.003Z,2.67
2023-03-03T15:42:06.062Z,1.98
2023-03-03T15:46:06.567Z,3.05
2023-03-03T15:50:00.009Z,2.65
2023-03-03T15:54:05.768Z,3.03
2023-03-03T15:57:58.785Z,3.80
2023-03-03T16:01:40.633Z,2.65
2023-03-03T16:05:26.521Z,2.80
2023-03-03T16:09:39.169Z,3.05
2023-03-03T16:13:41.571Z,2.75
2023-03-03T16:17:28.816Z,2.60
2023-03-03T16:25:20.889Z,3.25
2023-03-03T16:29:26.008Z,2.78
2023-03-03T16:33:31.732Z,2.28
2023-03-03T16:37:54.874Z,2.88
2023-03-03T16:41:50.199Z,5.00
2023-03-03T16:45:38.285Z,5.72
2023-03-03T16:49:44.873Z,4.63
2023-03-03T16:53:50.954Z,3.83
2023-03-03T16:57:58.230Z,3.37
2023-03-03T17:02:14.522Z,2.95
2023-03-03T17:06:10.173Z,4.53
2023-03-03T17:09:59.286Z,4.03
2023-03-03T17:13:56.448Z,4.85
2023-03-03T17:21:31.151Z,4.18
2023-03-03T17:25:23.546Z,4.63
2023-03-03T17:29:20.222Z,5.05
2023-03-03T17:33:26.928Z,5.57
2023-03-03T17:37:47.073Z,4.20
2023-03-03T17:41:34.271Z,6.50
2023-03-03T17:45:17.746Z,6.22
2023-03-03T17:49:18.294Z,6.10
2023-03-03T17:52:59.999Z,6.68
2023-03-03T17:57:15.450Z,6.78
2023-03-03T18:01:28.140Z,6.47
2023-03-03T18:05:31.470Z,6.68
2023-03-03T18:09:57.843Z,6.25
2023-03-03T18:14:04.424Z,5.68
2023-03-03T18:18:10.048Z,10.18
2023-03-03T18:22:00.705Z,7.88
2023-03-03T18:25:57.207Z,8.82
2023-03-03T18:29:39.060Z,10.85
2023-03-03T18:33:58.752Z,9.60
2023-03-03T18:37:45.043Z,8.20
2023-03-03T18:41:29.858Z,7.13
2023-03-03T18:45:17.730Z,10.27
2023-03-03T18:49:06.020Z,10.35
2023-03-03T18:53:17.974Z,10.50
2023-03-03T18:57:00.582Z,9.23
2023-03-03T19:00:50.051Z,11.75
2023-03-03T19:04:36.743Z,8.82
2023-03-03T19:08:28.680Z,10.23
2023-03-03T19:12:13.526Z,9.85
2023-03-03T19:15:58.241Z,11.63
2023-03-03T19:20:01.371Z,9.80
2023-03-03T19:23:54.472Z,10.35
2023-03-03T19:27:58.884Z,10.43
2023-03-03T19:31:56.859Z,10.77
2023-03-03T19:36:00.340Z,9.75
2023-03-03T19:39:46.372Z,10.80
2023-03-03T19:43:55.062Z,10.50
2023-03-03T19:47:44.890Z,10.93
2023-03-03T19:51:46.080Z,9.18
2023-03-03T19:56:06.289Z,7.63
2023-03-03T19:59:48.002Z,9.68
2023-03-03T20:03:54.613Z,11.90
2023-03-03T20:08:02.417Z,9.68
2023-03-03T20:12:09.531Z,11.50
2023-03-03T20:19:55.584Z,8.23
2023-03-03T20:23:58.014Z,9.10
2023-03-03T20:27:51.816Z,9.75
2023-03-03T20:31:52.387Z,9.95
2023-03-03T20:35:37.115Z,8.32
2023-03-03T20:39:49.551Z,11.02
2023-03-03T20:44:04.496Z,9.38
2023-03-03T20:48:12.060Z,9.48
2023-03-03T20:51:53.944Z,9.65
2023-03-03T20:55:53.554Z,10.32
2023-03-03T20:59:46.208Z,9.30
2023-03-03T21:03:37.554Z,8.98
2023-03-03T21:07:25.102Z,8.82
2023-03-03T21:11:11.130Z,7.38
2023-03-03T21:15:23.406Z,10.85
2023-03-03T21:19:10.746Z,8.60
2023-03-03T21:26:48.988Z,9.20
2023-03-03T21:30:32.560Z,11.68
2023-03-03T21:34:37.789Z,9.70
2023-03-03T21:38:37.258Z,10.77
2023-03-03T21:42:40.061Z,13.05
2023-03-03T21:46:24.261Z,12.82
2023-03-03T21:50:06.716Z,12.80
2023-03-03T21:53:48.530Z,10.73
2023-03-03T21:57:30.334Z,12.80
2023-03-03T22:01:12.234Z,9.13
2023-03-03T22:04:54.056Z,10.15
2023-03-03T22:08:35.791Z,10.20
2023-03-03T22:12:17.725Z,8.25
2023-03-03T22:15:59.677Z,8.70
2023-03-03T22:19:41.450Z,9.95
2023-03-03T22:23:23.287Z,11.15
2023-03-03T22:27:06.759Z,10.32
2023-03-03T22:30:48.570Z,11.23
2023-03-03T22:34:30.527Z,10.85
2023-03-03T22:38:12.408Z,11.65
2023-03-03T22:41:54.153Z,13.98
2023-03-03T22:45:36.282Z,11.05
2023-03-03T22:49:18.085Z,9.63
2023-03-03T22:53:00.868Z,9.10
2023-03-03T22:56:42.623Z,9.68
2023-03-03T23:00:24.485Z,9.43
2023-03-03T23:04:06.257Z,15.32
2023-03-03T23:07:48.114Z,10.80
2023-03-03T23:11:29.865Z,9.20
2023-03-03T23:15:14.807Z,9.07
2023-03-03T23:18:56.916Z,9.32
2023-03-03T23:22:38.889Z,11.32
2023-03-03T23:26:20.628Z,10.65
2023-03-03T23:30:02.552Z,11.77
2023-03-03T23:33:44.396Z,12.13
2023-03-03T23:37:26.498Z,12.73
2023-03-03T23:41:08.408Z,11.60
2023-03-03T23:44:50.325Z,12.73
2023-03-03T23:48:32.109Z,12.57
2023-03-03T23:52:13.921Z,12.65
2023-03-03T23:55:55.669Z,12.50
2023-03-03T23:59:37.420Z,12.25
